createdAt,value
2022-08-03T00:00:24.989Z,96349.47
2022-08-03T00:05:29.080Z,96347.41
2022-08-03T00:10:32.442Z,96348.88
2022-08-03T00:15:36.244Z,96339.50
2022-08-03T00:20:39.272Z,96341.78
2022-08-03T00:25:44.892Z,96337.94
2022-08-03T00:30:49.146Z,96340.66
2022-08-03T00:35:53.611Z,96341.69
2022-08-03T00:40:57.297Z,96346.97
2022-08-03T00:46:01.027Z,96340.16
2022-08-03T00:51:04.490Z,96343.19
2022-08-03T00:56:07.786Z,96345.19
2022-08-03T01:01:13.141Z,96332.72
2022-08-03T01:06:18.742Z,96338.22
2022-08-03T01:12:00.935Z,96346.56
2022-08-03T01:17:26.776Z,96335.13
2022-08-03T01:22:35.482Z,96330.22
2022-08-03T01:27:41.196Z,96328.41
2022-08-03T01:33:01.820Z,96328.13
2022-08-03T01:38:14.579Z,96319.59
2022-08-03T01:44:26.193Z,96327.16
2022-08-03T01:48:45.873Z,96317.44
2022-08-03T01:53:51.903Z,96329.56
2022-08-03T01:58:57.050Z,96327.56
2022-08-03T02:04:01.320Z,96316.84
2022-08-03T02:09:07.433Z,96318.53
2022-08-03T02:14:15.231Z,96326.16
2022-08-03T02:19:22.174Z,96331.63
2022-08-03T02:24:25.534Z,96331.13
2022-08-03T02:29:39.069Z,96331.09
2022-08-03T02:34:47.335Z,96325.00
2022-08-03T02:39:54.173Z,96331.56
2022-08-03T02:44:59.797Z,96331.75
2022-08-03T02:50:04.013Z,96324.88
2022-08-03T02:55:09.193Z,96319.53
2022-08-03T03:00:13.840Z,96319.53
2022-08-03T03:05:52.367Z,96329.59
2022-08-03T03:10:56.759Z,96317.16
2022-08-03T03:16:05.576Z,96318.16
2022-08-03T03:21:11.407Z,96316.50
2022-08-03T03:26:16.502Z,96313.28
2022-08-03T03:31:19.808Z,96318.13
2022-08-03T03:36:22.892Z,96324.91
2022-08-03T03:41:27.298Z,96324.84
2022-08-03T03:46:38.243Z,96326.81
2022-08-03T03:51:41.177Z,96331.00
2022-08-03T03:56:44.124Z,96327.94
2022-08-03T04:01:48.702Z,96336.28
2022-08-03T04:07:21.183Z,96340.34
2022-08-03T04:12:27.370Z,96338.38
2022-08-03T04:17:32.680Z,96334.81
2022-08-03T04:22:36.611Z,96330.38
2022-08-03T04:27:42.309Z,96333.44
2022-08-03T04:32:52.631Z,96345.31
2022-08-03T04:38:01.544Z,96344.44
2022-08-03T04:43:06.309Z,96344.53
2022-08-03T04:48:09.846Z,96350.66
2022-08-03T04:53:13.283Z,96349.75
2022-08-03T04:58:16.245Z,96358.06
2022-08-03T05:03:23.575Z,96359.69
2022-08-03T05:08:28.463Z,96365.69
2022-08-03T05:13:32.461Z,96366.38
2022-08-03T05:18:36.726Z,96365.25
2022-08-03T05:23:40.007Z,96366.41
2022-08-03T05:28:49.990Z,96361.88
2022-08-03T05:33:55.048Z,96368.78
2022-08-03T05:39:02.589Z,96367.84
2022-08-03T05:44:06.240Z,96378.56
2022-08-03T05:49:09.414Z,96376.81
2022-08-03T05:54:12.845Z,96368.09
2022-08-03T05:59:37.173Z,96375.72
2022-08-03T06:04:39.191Z,96369.06
2022-08-03T06:10:34.041Z,96376.31
2022-08-03T06:15:07.821Z,96376.66
2022-08-03T06:20:16.724Z,96383.59
2022-08-03T06:25:21.540Z,96371.16
2022-08-03T06:30:24.672Z,96390.28
2022-08-03T06:35:28.790Z,96391.41
2022-08-03T06:40:32.304Z,96394.75
2022-08-03T06:45:36.206Z,96391.06
2022-08-03T06:50:45.446Z,96401.59
2022-08-03T06:55:54.706Z,96386.75
2022-08-03T07:00:58.641Z,96390.34
2022-08-03T07:06:01.867Z,96396.19
2022-08-03T07:11:09.086Z,96384.69
2022-08-03T07:16:12.742Z,96389.59
2022-08-03T07:21:17.583Z,96391.56
2022-08-03T07:26:21.433Z,96390.53
2022-08-03T07:31:24.540Z,96383.25
2022-08-03T07:36:27.908Z,96381.03
2022-08-03T07:41:31.054Z,96380.97
2022-08-03T07:46:34.294Z,96378.38
2022-08-03T07:51:37.740Z,96383.56
2022-08-03T07:56:42.414Z,96372.59
2022-08-03T08:01:46.077Z,96369.06
2022-08-03T08:06:49.345Z,96373.75
2022-08-03T08:11:53.190Z,96364.69
2022-08-03T08:16:56.609Z,96373.31
2022-08-03T08:22:02.225Z,96360.97
2022-08-03T08:27:06.294Z,96374.78
2022-08-03T08:32:09.897Z,96357.94
2022-08-03T08:37:12.974Z,96367.56
2022-08-03T08:42:16.700Z,96375.56
2022-08-03T08:47:22.555Z,96366.31
2022-08-03T08:52:31.839Z,96362.28
2022-08-03T08:57:43.255Z,96367.53
2022-08-03T09:02:48.328Z,96364.94
2022-08-03T09:07:53.748Z,96362.81
2022-08-03T09:12:56.849Z,96358.91
2022-08-03T09:18:01.900Z,96350.63
2022-08-03T09:23:44.778Z,96362.63
2022-08-03T09:28:59.823Z,96350.03
2022-08-03T09:34:11.785Z,96350.50
2022-08-03T09:39:40.222Z,96337.97
2022-08-03T09:44:47.574Z,96349.69
2022-08-03T09:50:02.893Z,96343.22
2022-08-03T09:56:32.729Z,96343.78
2022-08-03T10:00:33.845Z,96351.97
2022-08-03T10:05:37.196Z,96348.88
2022-08-03T10:10:48.262Z,96326.53
2022-08-03T10:16:21.971Z,96332.94
2022-08-03T10:21:20.577Z,96333.88
2022-08-03T10:26:26.040Z,96333.47
2022-08-03T10:31:35.605Z,96324.34
2022-08-03T10:36:40.991Z,96327.22
2022-08-03T10:41:47.159Z,96319.34
2022-08-03T10:46:52.465Z,96321.34
2022-08-03T10:51:55.771Z,96324.13
2022-08-03T10:57:18.255Z,96306.63
2022-08-03T11:02:22.960Z,96301.25
2022-08-03T11:07:27.108Z,96292.16
2022-08-03T11:12:34.352Z,96297.84
2022-08-03T11:17:46.270Z,96296.38
2022-08-03T11:23:01.987Z,96289.41
2022-08-03T11:28:35.577Z,96290.66
2022-08-03T11:33:38.738Z,96289.78
2022-08-03T11:39:17.068Z,96300.16
2022-08-03T11:44:42.191Z,96283.22
2022-08-03T11:49:55.676Z,96292.75
2022-08-03T11:54:58.715Z,96284.16
2022-08-03T12:00:02.335Z,96280.44
2022-08-03T12:05:08.563Z,96274.19
2022-08-03T12:10:15.948Z,96268.09
2022-08-03T12:15:34.986Z,96265.47
2022-08-03T12:20:39.401Z,96255.50
2022-08-03T12:25:45.104Z,96249.59
2022-08-03T12:30:50.051Z,96241.19
2022-08-03T12:36:11.051Z,96249.72
2022-08-03T12:41:16.842Z,96252.88
2022-08-03T12:46:20.646Z,96243.13
2022-08-03T12:51:23.579Z,96238.69
2022-08-03T12:56:27.025Z,96244.53
2022-08-03T13:01:38.068Z,96242.06
2022-08-03T13:07:14.339Z,96232.09
2022-08-03T13:12:20.911Z,96229.69
2022-08-03T13:17:24.970Z,96235.16
2022-08-03T13:22:31.923Z,96234.13
2022-08-03T13:37:20.323Z,96228.53
2022-08-03T13:39:34.697Z,96203.75
2022-08-03T13:44:58.073Z,96218.69
2022-08-03T13:50:03.587Z,96212.34
2022-08-03T13:55:09.219Z,96202.59
2022-08-03T14:00:28.051Z,96198.88
2022-08-03T14:05:32.753Z,96181.38
2022-08-03T14:10:42.150Z,96195.81
2022-08-03T14:15:49.852Z,96183.91
2022-08-03T14:20:56.170Z,96178.09
2022-08-03T14:26:00.826Z,96170.56
2022-08-03T14:31:08.557Z,96174.16
2022-08-03T14:36:27.996Z,96168.00
2022-08-03T14:41:31.205Z,96168.97
2022-08-03T14:46:37.120Z,96165.72
2022-08-03T14:51:40.039Z,96164.19
2022-08-03T14:56:59.676Z,96165.47
2022-08-03T15:02:07.016Z,96163.31
2022-08-03T15:07:12.599Z,96146.63
2022-08-03T15:12:16.190Z,96144.03
2022-08-03T15:17:19.871Z,96136.16
2022-08-03T15:22:24.868Z,96148.72
2022-08-03T15:27:28.261Z,96136.28
2022-08-03T15:32:31.626Z,96139.88
2022-08-03T15:37:34.995Z,96142.09
2022-08-03T15:42:38.698Z,96135.50
2022-08-03T15:47:44.894Z,96136.84
2022-08-03T15:52:48.949Z,96127.59
2022-08-03T15:59:09.917Z,96137.38
2022-08-03T16:03:15.129Z,96125.59
2022-08-03T16:08:18.517Z,96123.28
2022-08-03T16:13:21.894Z,96127.75
2022-08-03T16:18:45.128Z,96127.47
2022-08-03T16:23:51.344Z,96132.13
2022-08-03T16:28:54.682Z,96123.56
2022-08-03T16:33:58.551Z,96120.78
2022-08-03T16:39:02.129Z,96110.31
2022-08-03T16:44:09.869Z,96112.56
2022-08-03T16:49:13.624Z,96116.66
2022-08-03T16:54:37.232Z,96115.31
2022-08-03T16:59:40.347Z,96120.25
2022-08-03T17:04:43.559Z,96113.53
2022-08-03T17:09:48.461Z,96111.28
2022-08-03T17:14:53.275Z,96110.94
2022-08-03T17:19:58.344Z,96110.19
2022-08-03T17:25:09.177Z,96128.34
2022-08-03T17:30:48.793Z,96132.41
2022-08-03T17:35:56.551Z,96128.66
2022-08-03T17:41:10.968Z,96129.47
2022-08-03T17:46:28.789Z,96127.63
2022-08-03T17:51:46.496Z,96135.94
2022-08-03T17:57:21.849Z,96134.13
2022-08-03T18:03:12.669Z,96140.94
2022-08-03T18:08:26.796Z,96151.47
2022-08-03T18:13:36.062Z,96152.31
2022-08-03T18:18:45.120Z,96160.59
2022-08-03T18:23:53.116Z,96157.34
2022-08-03T18:29:22.288Z,96157.66
2022-08-03T18:34:33.032Z,96156.56
2022-08-03T18:39:50.281Z,96158.84
2022-08-03T18:45:00.271Z,96154.66
2022-08-03T18:56:15.850Z,96168.84
2022-08-03T19:01:59.929Z,96172.47
2022-08-03T19:07:08.067Z,96179.59
2022-08-03T19:12:30.949Z,96182.06
2022-08-03T19:17:58.888Z,96189.41
2022-08-03T19:23:44.111Z,96183.22
2022-08-03T19:28:57.455Z,96195.25
2022-08-03T19:34:07.201Z,96195.81
2022-08-03T19:39:13.450Z,96194.75
2022-08-03T19:44:33.692Z,96188.34
2022-08-03T19:50:02.816Z,96201.06
2022-08-03T19:55:50.674Z,96195.69
2022-08-03T20:01:19.277Z,96193.47
2022-08-03T20:06:49.651Z,96191.13
2022-08-03T20:11:55.254Z,96187.13
2022-08-03T20:16:59.238Z,96205.47
2022-08-03T20:22:03.403Z,96195.09
2022-08-03T20:27:35.736Z,96199.88
2022-08-03T20:32:59.834Z,96192.25
2022-08-03T20:38:27.850Z,96195.00
2022-08-03T20:43:31.477Z,96192.75
2022-08-03T20:48:36.639Z,96195.16
2022-08-03T20:54:00.324Z,96189.06
2022-08-03T20:59:14.986Z,96191.94
2022-08-03T21:04:21.006Z,96196.16
2022-08-03T21:09:33.403Z,96187.38
2022-08-03T21:14:50.358Z,96188.41
2022-08-03T21:19:56.037Z,96189.91
2022-08-03T21:25:03.119Z,96185.72
2022-08-03T21:30:09.271Z,96192.38
2022-08-03T21:35:14.014Z,96178.69
2022-08-03T21:40:17.979Z,96169.59
2022-08-03T21:45:21.688Z,96180.75
2022-08-03T21:50:25.889Z,96170.09
2022-08-03T21:55:30.937Z,96178.16
2022-08-03T22:00:35.918Z,96176.31
2022-08-03T22:05:44.000Z,96176.81
2022-08-03T22:10:49.910Z,96182.78
2022-08-03T22:15:54.722Z,96177.25
2022-08-03T22:21:00.056Z,96176.09
2022-08-03T22:26:07.571Z,96181.44
2022-08-03T22:31:57.220Z,96176.09
2022-08-03T22:36:35.735Z,96182.63
2022-08-03T22:41:39.148Z,96177.16
2022-08-03T22:46:43.437Z,96175.41
2022-08-03T22:51:47.561Z,96167.88
2022-08-03T22:56:52.244Z,96176.75
2022-08-03T23:15:13.124Z,96149.47
2022-08-03T23:33:00.017Z,96145.25
2022-08-03T23:57:08.633Z,96177.06
